KCOU/COU METAR and TAF weather

Enter ICAO airport designator
Station Type Date Time Source
KCOU METAR 2020/01/19 02:54 UTC NOAA

KCOU 190254Z 30015G23KT 10SM CLR M03/M12 A3029 RMK AO2 PK WND 30031/0213 SLP264 T10281122 53009


Station Type Date Time Source
KCOU Decoded METAR 2020/01/19 02:54 UTC NOAA

COLUMBIA REGIONAL AIRPORT, MO, United States (KCOU) 38-49N 092-13W 271M
Jan 18, 2020 - 09:54 PM EST / 2020.01.19 0254 UTC
Wind: from the WNW (300 degrees) at 17 MPH (15 KT) gusting to 26 MPH (23 KT):0
Visibility: 10 mile(s):0
Sky conditions: clear
Temperature: 27.0 F (-2.8 C)
Windchill: 14 F (-10 C):1
Dew Point: 10.0 F (-12.2 C)
Relative Humidity: 48%
Pressure (altimeter): 30.29 in. Hg (1025 hPa)
Pressure tendency: 0.03 inches (0.9 hPa) higher than three hours ago
ob: KCOU 190254Z 30015G23KT 10SM CLR M03/M12 A3029 RMK AO2 PK WND 30031/0213 SLP264 T10281122 53009
cycle: 3

Station Type Date Time Source
KCOU TAF 2020/01/18 18:42 UTC NOAA

TAF KCOU 181738Z 1818/1918 29020G33KT P6SM OVC020
FM182100 29020G33KT P6SM SCT030
FM190000 30017G27KT P6SM SKC
FM191500 31015G25KT P6SM SKC

Example: see airport list